Time;durP1;ratioP1;P1;durP2;ratioP2;P2;SDS_P1;SDS_P2;PMS_P1;PMS_P2;Temp;Humidity;BMP_temperature;BMP_pressure;BME280_temperature;BME280_humidity;BME280_pressure;Samples;Min_cycle;Max_cycle;Signal;HPM_P1;HPM_P2
2022/03/08 00:00:26;;;;;;;4.95;4.45;;;5.00;56.80;;;;;;2072886;28;20021;-69
2022/03/08 00:01:28;;;;;;;6.35;4.70;;;5.00;57.00;;;;;;2073810;28;20065;-69
2022/03/08 00:02:28;;;;;;;5.70;4.30;;;5.00;56.90;;;;;;2074305;28;20041;-69
2022/03/08 00:03:29;;;;;;;4.78;4.28;;;4.90;56.90;;;;;;2074205;28;20443;-70
2022/03/08 00:04:30;;;;;;;6.13;4.88;;;4.90;57.00;;;;;;2072744;28;20069;-69
2022/03/08 00:05:30;;;;;;;5.15;4.65;;;4.90;57.10;;;;;;2074372;28;20371;-69
2022/03/08 00:06:31;;;;;;;4.78;4.20;;;4.90;57.20;;;;;;2076069;28;20113;-69
2022/03/08 00:07:31;;;;;;;5.18;4.70;;;4.80;57.20;;;;;;2072482;28;20037;-69
2022/03/08 00:08:32;;;;;;;5.18;4.10;;;4.80;57.20;;;;;;2076740;28;20059;-69
2022/03/08 00:09:33;;;;;;;5.25;4.55;;;4.80;57.30;;;;;;2074858;28;20022;-69
2022/03/08 00:10:33;;;;;;;6.40;4.53;;;4.80;57.40;;;;;;2073782;28;20072;-69
2022/03/08 00:11:34;;;;;;;5.45;4.85;;;4.80;57.40;;;;;;2074210;28;20053;-69
2022/03/08 00:12:35;;;;;;;4.78;4.28;;;4.80;57.50;;;;;;2073731;28;20033;-69
2022/03/08 00:13:36;;;;;;;5.03;4.53;;;4.80;57.50;;;;;;2075521;28;20026;-69
2022/03/08 00:14:36;;;;;;;5.35;4.63;;;4.80;57.60;;;;;;2072723;28;20049;-69
2022/03/08 00:15:38;;;;;;;10.68;4.60;;;4.70;57.60;;;;;;2073642;28;20532;-69
2022/03/08 00:16:39;;;;;;;6.43;4.53;;;4.70;58.20;;;;;;2076119;28;20029;-69
2022/03/08 00:17:39;;;;;;;5.57;4.25;;;4.70;57.60;;;;;;2073357;28;20034;-69
2022/03/08 00:18:40;;;;;;;5.05;4.32;;;4.70;57.70;;;;;;2075217;28;20029;-69
2022/03/08 00:19:40;;;;;;;5.78;4.22;;;4.70;57.70;;;;;;2074078;28;20048;-69
2022/03/08 00:20:41;;;;;;;5.20;4.70;;;4.70;57.80;;;;;;2073812;28;20025;-69
2022/03/08 00:21:41;;;;;;;5.20;4.70;;;4.70;57.90;;;;;;2074329;28;20069;-69
2022/03/08 00:22:43;;;;;;;5.57;4.53;;;4.70;58.00;;;;;;2073927;28;20029;-69
2022/03/08 00:23:44;;;;;;;8.85;5.47;;;4.70;57.90;;;;;;2075243;28;20049;-69
2022/03/08 00:24:45;;;;;;;7.72;4.43;;;4.60;57.90;;;;;;2076167;28;20140;-69
2022/03/08 00:25:45;;;;;;;5.70;4.82;;;4.70;58.00;;;;;;2073169;28;20021;-69
2022/03/08 00:26:46;;;;;;;6.85;4.57;;;4.60;58.00;;;;;;2076737;28;20022;-69
2022/03/08 00:27:47;;;;;;;10.73;4.53;;;4.60;58.00;;;;;;2073274;28;20021;-69
2022/03/08 00:28:47;;;;;;;5.60;4.78;;;4.60;58.10;;;;;;2074916;28;20417;-69
2022/03/08 00:29:48;;;;;;;11.43;4.80;;;4.60;58.10;;;;;;2076836;28;20543;-69
2022/03/08 00:30:48;;;;;;;7.35;4.88;;;4.60;58.20;;;;;;2073519;28;20065;-69
2022/03/08 00:31:49;;;;;;;9.57;5.10;;;4.60;58.30;;;;;;2077022;28;20040;-69
2022/03/08 00:32:51;;;;;;;7.18;4.57;;;4.60;58.30;;;;;;2074847;28;20017;-69
2022/03/08 00:33:52;;;;;;;6.93;4.88;;;4.60;58.40;;;;;;2073594;28;20397;-69
2022/03/08 00:34:52;;;;;;;5.70;5.10;;;4.50;58.40;;;;;;2076064;28;20026;-69
2022/03/08 00:35:54;;;;;;;5.38;4.88;;;4.60;58.40;;;;;;2073896;28;20038;-69
2022/03/08 00:36:54;;;;;;;9.00;4.80;;;4.50;58.50;;;;;;2075943;28;20044;-69
2022/03/08 00:37:59;;;;;;;5.80;5.00;;;4.50;58.50;;;;;;2073536;28;20105;-69
2022/03/08 00:38:59;;;;;;;6.28;5.07;;;4.50;58.60;;;;;;2074910;28;20028;-69
2022/03/08 00:40:00;;;;;;;9.10;5.15;;;4.50;58.70;;;;;;2071906;28;20546;-70
2022/03/08 00:41:01;;;;;;;9.50;4.63;;;4.50;58.70;;;;;;2075072;28;20466;-69
2022/03/08 00:42:01;;;;;;;9.18;5.03;;;4.50;58.80;;;;;;2073493;28;20018;-69
2022/03/08 00:43:02;;;;;;;6.47;5.07;;;4.40;58.70;;;;;;2074172;28;20022;-69
2022/03/08 00:44:04;;;;;;;9.32;5.22;;;4.50;58.70;;;;;;2075085;28;20041;-69
2022/03/08 00:45:07;;;;;;;5.70;4.72;;;4.40;58.80;;;;;;2071720;28;20028;-69
2022/03/08 00:46:07;;;;;;;5.55;4.57;;;4.40;58.80;;;;;;2072990;28;20026;-69
2022/03/08 00:47:09;;;;;;;6.03;4.90;;;4.40;58.90;;;;;;2073656;28;20062;-69
2022/03/08 00:48:10;;;;;;;7.88;4.70;;;4.40;58.90;;;;;;2073516;28;20540;-69
2022/03/08 00:49:10;;;;;;;5.90;4.45;;;4.40;58.90;;;;;;2074867;28;20525;-69
2022/03/08 00:50:16;;;;;;;5.82;5.15;;;4.40;59.00;;;;;;2074076;28;20029;-69
2022/03/08 00:51:17;;;;;;;5.65;5.00;;;4.40;59.10;;;;;;2073362;28;20505;-69
2022/03/08 00:52:17;;;;;;;5.53;4.93;;;4.40;59.10;;;;;;2075752;28;20426;-69
2022/03/08 00:53:19;;;;;;;6.93;5.43;;;4.40;59.00;;;;;;2075271;28;20587;-69
2022/03/08 00:54:19;;;;;;;6.03;4.60;;;4.40;59.70;;;;;;2075328;28;20079;-69
2022/03/08 00:55:21;;;;;;;6.68;4.65;;;4.30;59.10;;;;;;2075993;28;20026;-69
2022/03/08 00:56:22;;;;;;;7.15;5.25;;;4.30;59.20;;;;;;2073816;28;20026;-70
2022/03/08 00:57:22;;;;;;;7.20;4.60;;;4.30;59.20;;;;;;2078035;28;20032;-69
2022/03/08 00:58:23;;;;;;;5.32;4.82;;;4.30;59.30;;;;;;2076126;28;20447;-69
2022/03/08 00:59:24;;;;;;;7.63;5.20;;;4.30;59.30;;;;;;2073603;28;20068;-69
2022/03/08 01:00:26;;;;;;;11.75;4.88;;;4.30;59.40;;;;;;2073727;28;20470;-69
2022/03/08 01:01:27;;;;;;;7.00;4.68;;;4.30;59.40;;;;;;2073149;28;20149;-69
2022/03/08 01:02:28;;;;;;;8.20;5.18;;;4.20;59.50;;;;;;2074236;28;20030;-69
2022/03/08 01:03:28;;;;;;;5.55;5.05;;;4.20;59.60;;;;;;2073320;28;20127;-69
2022/03/08 01:04:29;;;;;;;5.43;4.93;;;4.20;59.70;;;;;;2073031;28;20132;-69
2022/03/08 01:05:30;;;;;;;6.35;5.45;;;4.20;59.70;;;;;;2072861;28;20017;-69
2022/03/08 01:06:31;;;;;;;9.77;5.40;;;4.20;59.80;;;;;;2073485;28;20197;-70
2022/03/08 01:07:32;;;;;;;6.30;5.30;;;4.10;59.80;;;;;;2072662;28;20094;-69
2022/03/08 01:08:33;;;;;;;7.18;5.60;;;4.10;59.90;;;;;;2078891;28;20025;-69
2022/03/08 01:09:34;;;;;;;6.55;5.85;;;4.10;59.90;;;;;;2076228;28;20018;-69
2022/03/08 01:10:35;;;;;;;6.03;5.43;;;4.10;60.00;;;;;;2073392;28;20026;-69
2022/03/08 01:11:39;;;;;;;5.53;4.90;;;4.10;60.20;;;;;;2073600;28;20518;-69
2022/03/08 01:12:40;;;;;;;5.85;5.28;;;4.10;60.20;;;;;;2073518;28;20018;-69
2022/03/08 01:13:40;;;;;;;4.85;4.45;;;4.10;60.20;;;;;;2075971;28;20049;-69
2022/03/08 01:14:41;;;;;;;6.70;4.47;;;4.00;60.20;;;;;;2074278;28;20026;-69
2022/03/08 01:15:42;;;;;;;5.75;5.15;;;4.00;60.20;;;;;;2072658;28;20489;-69
2022/03/08 01:16:42;;;;;;;8.07;5.40;;;4.00;60.30;;;;;;2076234;28;20375;-69
2022/03/08 01:17:43;;;;;;;6.18;5.57;;;4.00;60.30;;;;;;2075602;28;20056;-69
2022/03/08 01:18:44;;;;;;;5.65;4.50;;;4.00;60.40;;;;;;2075456;28;20014;-69
2022/03/08 01:19:45;;;;;;;6.93;5.55;;;4.00;60.50;;;;;;2073455;28;20026;-69
2022/03/08 01:20:45;;;;;;;8.73;5.50;;;3.90;60.50;;;;;;2073176;28;20428;-69
2022/03/08 01:21:46;;;;;;;6.45;5.13;;;3.90;60.60;;;;;;2074208;28;20029;-69
2022/03/08 01:22:47;;;;;;;5.45;4.95;;;3.90;60.60;;;;;;2073958;28;20381;-69
2022/03/08 01:23:47;;;;;;;5.65;4.78;;;3.90;60.60;;;;;;2074393;28;20448;-69
2022/03/08 01:24:48;;;;;;;5.82;5.03;;;3.90;60.70;;;;;;2074510;28;20671;-69
2022/03/08 01:25:48;;;;;;;5.70;4.82;;;3.90;60.70;;;;;;2073785;28;20021;-69
2022/03/08 01:26:49;;;;;;;8.90;5.03;;;3.90;60.70;;;;;;2074429;28;20025;-69
2022/03/08 01:27:51;;;;;;;7.15;5.07;;;3.80;60.70;;;;;;2073035;28;20617;-69
2022/03/08 01:28:51;;;;;;;5.63;4.63;;;3.80;60.70;;;;;;2073328;28;20480;-69
2022/03/08 01:29:52;;;;;;;4.90;4.40;;;3.80;60.80;;;;;;2075345;28;20389;-69
2022/03/08 01:30:52;;;;;;;6.15;4.70;;;3.80;61.00;;;;;;2074905;28;20017;-69
2022/03/08 01:31:53;;;;;;;5.90;5.03;;;3.80;61.00;;;;;;2073375;28;20076;-69
2022/03/08 01:32:54;;;;;;;8.30;4.82;;;3.70;61.10;;;;;;2072754;28;20037;-69
2022/03/08 01:33:55;;;;;;;6.43;5.43;;;3.70;61.30;;;;;;2076164;28;20033;-69
2022/03/08 01:34:55;;;;;;;7.22;5.07;;;3.70;61.40;;;;;;2072690;28;20072;-69
2022/03/08 01:35:56;;;;;;;6.53;5.25;;;3.70;61.50;;;;;;2074446;28;20381;-69
2022/03/08 01:36:56;;;;;;;6.10;5.18;;;3.60;61.50;;;;;;2073109;28;20025;-69
2022/03/08 01:37:57;;;;;;;11.95;5.13;;;3.60;61.60;;;;;;2073447;28;20148;-69
2022/03/08 01:38:58;;;;;;;6.20;5.53;;;3.60;61.90;;;;;;2071720;28;20416;-69
2022/03/08 01:39:58;;;;;;;5.35;4.85;;;3.60;61.90;;;;;;2071202;28;20033;-69
2022/03/08 01:40:59;;;;;;;5.45;4.60;;;3.50;61.80;;;;;;2072144;28;20025;-69
2022/03/08 01:42:10;;;;;;;5.57;4.95;;;3.50;62.00;;;;;;2071524;28;20107;-69
2022/03/08 01:43:11;;;;;;;6.75;4.93;;;3.50;62.40;;;;;;2075195;28;20350;-69
2022/03/08 01:44:12;;;;;;;6.15;5.40;;;3.50;62.40;;;;;;2072558;28;20073;-69
2022/03/08 01:45:17;;;;;;;7.45;5.82;;;3.40;62.40;;;;;;2073781;28;20088;-68
2022/03/08 01:46:17;;;;;;;5.93;5.20;;;3.40;62.60;;;;;;2072349;28;20030;-68
2022/03/08 01:47:22;;;;;;;6.80;5.85;;;3.40;62.70;;;;;;2072589;28;20228;-69
2022/03/08 01:48:22;;;;;;;7.43;5.57;;;3.30;62.70;;;;;;2070991;28;20057;-69
2022/03/08 01:49:23;;;;;;;8.23;5.47;;;3.30;63.50;;;;;;2074806;28;20033;-69
2022/03/08 01:50:23;;;;;;;6.28;5.20;;;3.30;62.80;;;;;;2073974;28;20029;-69
2022/03/08 01:51:24;;;;;;;6.95;5.00;;;3.30;63.00;;;;;;2070900;28;20026;-68
2022/03/08 01:52:27;;;;;;;5.70;4.78;;;3.20;62.90;;;;;;2074294;28;20044;-69
2022/03/08 01:53:27;;;;;;;5.47;4.53;;;3.20;63.00;;;;;;2074128;28;20094;-69
2022/03/08 01:54:28;;;;;;;6.30;5.30;;;3.20;63.10;;;;;;2072976;28;20069;-69
2022/03/08 01:55:28;;;;;;;8.20;5.38;;;3.20;63.10;;;;;;2076702;28;20046;-69
2022/03/08 01:56:29;;;;;;;6.22;4.95;;;3.10;63.10;;;;;;2071258;28;20030;-69
2022/03/08 01:57:30;;;;;;;6.80;5.22;;;3.10;63.30;;;;;;2077204;28;21760;-69
2022/03/08 01:58:31;;;;;;;7.30;5.63;;;3.10;63.50;;;;;;2073919;28;20061;-69
2022/03/08 01:59:31;;;;;;;5.57;4.88;;;3.10;63.80;;;;;;2070870;28;20038;-69
2022/03/08 02:00:33;;;;;;;6.28;5.68;;;3.00;64.00;;;;;;2071192;28;20838;-69
2022/03/08 02:01:33;;;;;;;6.07;5.53;;;3.00;64.00;;;;;;2070823;28;20026;-68
2022/03/08 02:02:34;;;;;;;7.60;6.00;;;3.00;64.10;;;;;;2072154;28;20549;-69
2022/03/08 02:03:35;;;;;;;5.88;5.00;;;3.00;64.20;;;;;;2071270;28;20105;-69
2022/03/08 02:04:36;;;;;;;8.55;5.82;;;2.90;64.40;;;;;;2073902;28;20492;-69
2022/03/08 02:05:36;;;;;;;6.20;5.60;;;2.90;64.50;;;;;;2072432;28;20060;-69
2022/03/08 02:06:37;;;;;;;7.07;6.35;;;2.90;64.60;;;;;;2070492;28;20089;-68
2022/03/08 02:07:38;;;;;;;5.25;4.75;;;2.90;64.70;;;;;;2074324;28;20745;-68
2022/03/08 02:08:39;;;;;;;5.53;4.93;;;2.90;64.80;;;;;;2073315;28;20026;-68
2022/03/08 02:09:40;;;;;;;5.93;5.32;;;2.80;64.70;;;;;;2072517;28;20033;-69
2022/03/08 02:10:40;;;;;;;5.75;5.13;;;2.80;64.80;;;;;;2076780;28;20051;-68
2022/03/08 02:11:41;;;;;;;5.63;4.82;;;2.80;64.90;;;;;;2072385;28;20309;-68
2022/03/08 02:12:42;;;;;;;5.65;5.07;;;2.80;64.90;;;;;;2072700;28;20497;-69
2022/03/08 02:13:43;;;;;;;5.82;5.20;;;2.70;65.00;;;;;;2076779;28;20378;-68
2022/03/08 02:14:43;;;;;;;6.57;5.35;;;2.70;65.20;;;;;;2073644;28;20045;-68
2022/03/08 02:15:49;;;;;;;5.72;5.22;;;2.70;65.30;;;;;;2074563;28;20694;-68
2022/03/08 02:16:50;;;;;;;6.10;5.53;;;2.70;65.60;;;;;;2072521;28;20030;-69
2022/03/08 02:17:51;;;;;;;6.82;5.82;;;2.70;65.60;;;;;;2071221;28;20024;-68
2022/03/08 02:18:52;;;;;;;5.82;5.32;;;2.60;65.70;;;;;;2074737;28;20026;-69
2022/03/08 02:19:56;;;;;;;7.00;5.47;;;2.60;65.80;;;;;;2071180;28;20057;-69
2022/03/08 02:21:03;;;;;;;5.53;5.03;;;2.60;65.80;;;;;;2073929;28;20018;-69
2022/03/08 02:22:04;;;;;;;7.80;6.00;;;2.50;65.80;;;;;;2071573;28;20418;-69
2022/03/08 02:23:04;;;;;;;9.27;6.55;;;2.50;66.10;;;;;;2074923;28;20124;-68
2022/03/08 02:24:05;;;;;;;6.95;6.25;;;2.50;66.30;;;;;;2071529;28;20083;-69
2022/03/08 02:25:06;;;;;;;7.15;5.95;;;2.50;66.40;;;;;;2071313;28;20025;-69
2022/03/08 02:26:07;;;;;;;7.32;5.90;;;2.50;66.80;;;;;;2070759;28;20022;-69
2022/03/08 02:27:08;;;;;;;7.72;6.28;;;2.40;66.50;;;;;;2070590;28;20017;-68
2022/03/08 02:28:08;;;;;;;6.78;5.80;;;2.40;66.60;;;;;;2073883;28;20508;-68
2022/03/08 02:29:11;;;;;;;7.30;6.13;;;2.40;66.70;;;;;;2071616;28;20021;-69
2022/03/08 02:30:13;;;;;;;8.50;5.72;;;2.40;66.90;;;;;;2071335;28;20026;-69
2022/03/08 02:31:17;;;;;;;8.23;6.90;;;2.40;66.90;;;;;;2072090;28;20033;-68
2022/03/08 02:32:18;;;;;;;7.43;6.20;;;2.30;66.80;;;;;;2072891;28;20120;-69
2022/03/08 02:33:18;;;;;;;6.22;5.43;;;2.30;67.00;;;;;;2071871;28;20509;-68
2022/03/08 02:34:19;;;;;;;7.25;5.82;;;2.30;67.00;;;;;;2075549;28;20060;-69
2022/03/08 02:35:24;;;;;;;6.55;5.95;;;2.30;67.00;;;;;;2072995;28;20037;-69
2022/03/08 02:36:24;;;;;;;7.00;6.25;;;2.30;67.20;;;;;;2071592;28;20069;-69
2022/03/08 02:37:35;;;;;;;7.47;5.93;;;2.20;67.30;;;;;;2071420;28;20022;-69
2022/03/08 02:38:36;;;;;;;7.53;5.60;;;2.20;67.30;;;;;;2070795;28;20026;-68
2022/03/08 02:39:38;;;;;;;10.45;6.25;;;2.20;67.60;;;;;;2071103;28;20235;-69
2022/03/08 02:40:40;;;;;;;9.85;6.15;;;2.20;67.50;;;;;;2074867;28;20133;-69
2022/03/08 02:41:43;;;;;;;7.82;6.50;;;2.10;67.80;;;;;;2071539;28;20028;-69
2022/03/08 02:42:44;;;;;;;8.68;6.80;;;2.10;68.00;;;;;;2072293;28;20033;-69
2022/03/08 02:43:44;;;;;;;7.03;5.70;;;2.10;68.30;;;;;;2071033;28;20053;-68
2022/03/08 02:44:45;;;;;;;9.50;6.60;;;2.10;68.30;;;;;;2071030;28;20068;-69
2022/03/08 02:45:46;;;;;;;9.20;6.22;;;2.10;68.30;;;;;;2072204;28;20033;-69
2022/03/08 02:46:46;;;;;;;9.68;6.75;;;2.00;68.20;;;;;;2073483;28;20026;-69
2022/03/08 02:47:47;;;;;;;8.70;6.72;;;2.00;68.40;;;;;;2075052;28;20104;-69
2022/03/08 02:48:48;;;;;;;10.57;7.05;;;2.00;68.50;;;;;;2072482;28;20030;-68
2022/03/08 02:49:48;;;;;;;7.30;6.30;;;2.00;68.60;;;;;;2072762;28;20037;-69
2022/03/08 02:50:49;;;;;;;8.45;6.75;;;2.00;68.60;;;;;;2071067;28;20741;-69
2022/03/08 02:51:49;;;;;;;9.02;7.38;;;2.00;68.80;;;;;;2071491;28;20073;-69
2022/03/08 02:52:53;;;;;;;8.23;7.00;;;2.00;69.00;;;;;;2073261;28;20041;-69
2022/03/08 02:53:53;;;;;;;7.70;6.22;;;2.00;69.30;;;;;;2070697;28;20793;-69
2022/03/08 02:54:54;;;;;;;9.82;6.82;;;1.90;69.10;;;;;;2067934;28;20424;-69
2022/03/08 02:55:54;;;;;;;7.47;6.47;;;1.90;69.20;;;;;;2074611;28;20371;-69
2022/03/08 02:56:55;;;;;;;6.88;6.18;;;1.90;69.40;;;;;;2074146;28;20041;-69
2022/03/08 02:57:56;;;;;;;8.73;6.28;;;1.90;69.50;;;;;;2070881;28;20026;-69
2022/03/08 02:58:57;;;;;;;8.60;7.20;;;1.90;69.50;;;;;;2072204;28;20026;-69
2022/03/08 02:59:57;;;;;;;8.07;6.88;;;1.90;69.70;;;;;;2075186;28;20053;-69
2022/03/08 03:00:58;;;;;;;7.97;6.85;;;1.80;69.70;;;;;;2071718;28;20022;-69
2022/03/08 03:01:58;;;;;;;7.55;6.03;;;1.80;69.80;;;;;;2073414;28;20490;-69
2022/03/08 03:02:59;;;;;;;7.47;6.50;;;1.80;69.90;;;;;;2074025;28;20045;-69
2022/03/08 03:04:00;;;;;;;8.15;6.50;;;1.80;69.90;;;;;;2074877;28;20100;-69
2022/03/08 03:05:00;;;;;;;8.32;6.22;;;1.80;70.10;;;;;;2073621;28;20478;-68
2022/03/08 03:06:01;;;;;;;7.47;6.75;;;1.80;70.40;;;;;;2074557;28;20028;-69
2022/03/08 03:07:01;;;;;;;7.28;6.22;;;1.80;70.80;;;;;;2074082;28;20508;-69
2022/03/08 03:08:04;;;;;;;8.32;6.97;;;1.70;70.70;;;;;;2074512;28;20025;-69
2022/03/08 03:09:05;;;;;;;7.70;6.53;;;1.70;70.80;;;;;;2074042;28;20145;-69
2022/03/08 03:10:12;;;;;;;8.40;6.50;;;1.70;70.90;;;;;;2071862;28;20072;-69
2022/03/08 03:11:12;;;;;;;7.53;6.82;;;1.70;71.90;;;;;;2072467;28;20688;-68
2022/03/08 03:12:13;;;;;;;8.00;6.57;;;1.70;71.90;;;;;;2075813;28;20087;-68
2022/03/08 03:13:13;;;;;;;6.50;5.75;;;1.70;71.90;;;;;;2074444;28;20034;-68
2022/03/08 03:14:14;;;;;;;7.97;7.20;;;1.60;71.80;;;;;;2071860;28;20028;-68
2022/03/08 03:15:16;;;;;;;8.88;6.70;;;1.60;71.90;;;;;;2073566;28;20401;-69
2022/03/08 03:16:17;;;;;;;8.27;6.80;;;1.60;72.30;;;;;;2071967;28;20282;-68
2022/03/08 03:17:17;;;;;;;8.07;6.30;;;1.60;72.70;;;;;;2071998;28;20061;-69
2022/03/08 03:18:18;;;;;;;7.32;6.30;;;1.60;72.50;;;;;;2074648;28;20026;-69
2022/03/08 03:19:19;;;;;;;11.13;6.55;;;1.60;72.60;;;;;;2072028;28;20034;-69
2022/03/08 03:20:21;;;;;;;7.05;6.35;;;1.60;72.90;;;;;;2070925;28;20041;-69
2022/03/08 03:21:21;;;;;;;9.68;7.03;;;1.60;73.10;;;;;;2072491;28;20087;-69
2022/03/08 03:22:22;;;;;;;10.65;6.22;;;1.50;73.00;;;;;;2071799;28;20025;-69
2022/03/08 03:23:22;;;;;;;8.52;7.32;;;1.50;73.90;;;;;;2072529;28;20032;-69
2022/03/08 03:24:23;;;;;;;9.20;7.10;;;1.50;73.50;;;;;;2072574;28;20071;-69
2022/03/08 03:25:23;;;;;;;8.35;7.10;;;1.50;73.80;;;;;;2072752;28;20026;-69
2022/03/08 03:26:24;;;;;;;6.93;6.10;;;1.50;74.10;;;;;;2075038;28;20474;-69
2022/03/08 03:27:25;;;;;;;8.40;6.20;;;1.50;73.90;;;;;;2071792;28;20042;-69
2022/03/08 03:28:25;;;;;;;7.53;6.80;;;1.50;73.80;;;;;;2073714;28;20370;-69
2022/03/08 03:29:26;;;;;;;7.88;6.82;;;1.50;74.00;;;;;;2073659;28;20081;-69
2022/03/08 03:30:26;;;;;;;7.72;7.03;;;1.50;74.30;;;;;;2072168;28;20028;-69
2022/03/08 03:31:27;;;;;;;7.97;6.78;;;1.40;74.60;;;;;;2075047;28;20053;-69
2022/03/08 03:32:27;;;;;;;7.18;6.35;;;1.40;75.30;;;;;;2072283;28;20049;-69
2022/03/08 03:33:28;;;;;;;9.80;6.57;;;1.40;75.60;;;;;;2073210;28;20096;-68
2022/03/08 03:34:29;;;;;;;7.60;6.82;;;1.40;75.70;;;;;;2072806;28;20029;-69
2022/03/08 03:35:30;;;;;;;7.72;7.00;;;1.40;75.60;;;;;;2072127;28;20041;-68
2022/03/08 03:36:30;;;;;;;10.80;7.53;;;1.40;75.60;;;;;;2073988;28;20040;-69
2022/03/08 03:37:31;;;;;;;7.35;6.53;;;1.30;76.20;;;;;;2072082;28;20037;-69
2022/03/08 03:38:32;;;;;;;7.82;7.03;;;1.30;76.50;;;;;;2071094;28;20064;-69
2022/03/08 03:39:32;;;;;;;8.88;7.40;;;1.30;76.30;;;;;;2073498;28;20030;-69
2022/03/08 03:40:33;;;;;;;7.65;6.53;;;1.30;76.50;;;;;;2071880;28;20414;-69
2022/03/08 03:41:33;;;;;;;7.32;6.50;;;1.30;76.50;;;;;;2076031;28;20101;-69
2022/03/08 03:42:34;;;;;;;7.68;6.88;;;1.30;76.40;;;;;;2075340;28;20033;-69
2022/03/08 03:43:35;;;;;;;8.65;6.60;;;1.30;76.60;;;;;;2072664;28;20025;-69
2022/03/08 03:44:35;;;;;;;7.75;6.90;;;1.30;77.20;;;;;;2073490;28;20103;-69
2022/03/08 03:45:36;;;;;;;7.07;6.28;;;1.30;77.30;;;;;;2072721;28;20033;-68
2022/03/08 03:46:37;;;;;;;6.97;6.30;;;1.20;76.90;;;;;;2073992;28;20108;-69
2022/03/08 03:47:37;;;;;;;8.07;6.53;;;1.20;76.90;;;;;;2072722;28;20041;-69
2022/03/08 03:48:38;;;;;;;8.02;6.97;;;1.20;76.70;;;;;;2072407;28;20022;-69
2022/03/08 03:49:38;;;;;;;10.30;7.13;;;1.20;77.10;;;;;;2075796;28;20017;-69
2022/03/08 03:50:40;;;;;;;6.90;6.07;;;1.20;77.60;;;;;;2071893;28;20422;-69
2022/03/08 03:51:41;;;;;;;8.48;6.30;;;1.20;77.50;;;;;;2071655;28;20046;-69
2022/03/08 03:52:42;;;;;;;8.05;7.25;;;1.20;77.60;;;;;;2072164;28;20431;-69
2022/03/08 03:53:44;;;;;;;7.28;6.57;;;1.20;77.60;;;;;;2074733;28;20029;-68
2022/03/08 03:54:44;;;;;;;9.38;7.18;;;1.20;77.90;;;;;;2073701;28;20025;-68
2022/03/08 03:55:45;;;;;;;9.57;6.93;;;1.20;78.00;;;;;;2072249;28;20062;-69
2022/03/08 03:56:45;;;;;;;9.45;7.25;;;1.20;78.10;;;;;;2072041;28;20017;-69
2022/03/08 03:57:46;;;;;;;7.68;6.97;;;1.20;78.50;;;;;;2079267;28;20053;-69
2022/03/08 03:58:47;;;;;;;7.43;6.68;;;1.10;78.60;;;;;;2072504;28;20037;-69
2022/03/08 03:59:47;;;;;;;8.02;6.43;;;1.10;78.30;;;;;;2077481;28;20109;-69
2022/03/08 04:00:48;;;;;;;6.32;5.68;;;1.10;78.70;;;;;;2076383;28;20017;-69
2022/03/08 04:01:48;;;;;;;6.88;6.15;;;1.10;78.50;;;;;;2072478;28;20025;-69
2022/03/08 04:02:49;;;;;;;9.90;7.22;;;1.10;78.20;;;;;;2070911;28;20026;-69
2022/03/08 04:03:50;;;;;;;9.48;7.65;;;1.10;78.50;;;;;;2074567;28;20030;-69
2022/03/08 04:04:50;;;;;;;7.25;6.38;;;1.10;79.20;;;;;;2070818;28;20382;-69
2022/03/08 04:05:51;;;;;;;10.82;8.52;;;1.10;79.30;;;;;;2070004;28;20052;-69
2022/03/08 04:06:51;;;;;;;9.95;7.93;;;1.10;80.50;;;;;;2073663;28;20025;-69
2022/03/08 04:07:52;;;;;;;12.88;8.82;;;1.00;81.00;;;;;;2072724;28;20050;-69
2022/03/08 04:08:52;;;;;;;9.70;7.80;;;1.00;81.90;;;;;;2071322;28;20045;-69
2022/03/08 04:09:53;;;;;;;12.30;7.82;;;1.00;81.80;;;;;;2071403;28;20072;-69
2022/03/08 04:10:53;;;;;;;7.18;6.47;;;1.00;82.10;;;;;;2070897;28;20022;-69
2022/03/08 04:11:54;;;;;;;10.88;8.93;;;1.00;81.80;;;;;;2070224;28;20105;-69
2022/03/08 04:12:55;;;;;;;9.20;8.02;;;1.00;82.50;;;;;;2070935;28;20121;-69
2022/03/08 04:13:55;;;;;;;9.60;7.88;;;1.00;83.20;;;;;;2070809;28;20113;-69
2022/03/08 04:14:56;;;;;;;8.60;7.45;;;1.00;83.70;;;;;;2072797;28;20481;-69
2022/03/08 04:15:56;;;;;;;10.23;7.45;;;1.00;83.20;;;;;;2069675;28;20025;-69
2022/03/08 04:16:57;;;;;;;8.30;6.97;;;1.00;82.80;;;;;;2071640;28;20022;-69
2022/03/08 04:17:57;;;;;;;10.70;8.38;;;1.00;83.50;;;;;;2071550;28;20034;-69
2022/03/08 04:18:58;;;;;;;10.68;8.02;;;0.90;84.20;;;;;;2070453;28;20018;-69
2022/03/08 04:19:59;;;;;;;12.38;8.80;;;0.90;84.30;;;;;;2070534;28;20478;-69
2022/03/08 04:20:59;;;;;;;8.90;8.00;;;0.90;85.00;;;;;;2069965;28;20073;-68
2022/03/08 04:22:00;;;;;;;11.38;8.80;;;0.90;85.60;;;;;;2072315;28;20061;-69
2022/03/08 04:23:00;;;;;;;11.88;8.75;;;0.90;86.30;;;;;;2071550;28;20037;-68
2022/03/08 04:24:01;;;;;;;9.98;8.95;;;0.90;86.70;;;;;;2070953;28;20117;-69
2022/03/08 04:25:02;;;;;;;11.40;8.68;;;0.90;86.90;;;;;;2073080;28;20061;-69
2022/03/08 04:26:03;;;;;;;12.18;8.18;;;0.90;87.50;;;;;;2071020;28;20825;-69
2022/03/08 04:27:05;;;;;;;9.77;7.90;;;0.90;87.40;;;;;;2072194;28;20037;-69
2022/03/08 04:28:06;;;;;;;11.18;8.65;;;0.90;88.00;;;;;;2069476;28;20104;-69
2022/03/08 04:29:06;;;;;;;9.60;8.60;;;0.90;88.60;;;;;;2073764;28;20026;-69
2022/03/08 04:30:09;;;;;;;12.18;7.85;;;0.90;88.60;;;;;;2073506;28;20058;-69
2022/03/08 04:31:09;;;;;;;11.80;7.70;;;0.90;88.50;;;;;;2073816;28;20014;-69
2022/03/08 04:32:10;;;;;;;10.63;8.85;;;0.90;88.50;;;;;;2074835;28;20090;-69
2022/03/08 04:33:10;;;;;;;9.55;8.55;;;0.90;89.00;;;;;;2072868;28;20105;-69
2022/03/08 04:34:11;;;;;;;12.77;9.20;;;0.90;89.50;;;;;;2079132;28;20034;-69
2022/03/08 04:35:12;;;;;;;10.90;8.43;;;0.90;90.00;;;;;;2078688;28;20041;-69
2022/03/08 04:36:12;;;;;;;9.88;7.57;;;0.90;90.20;;;;;;2074216;28;20029;-69
2022/03/08 04:37:13;;;;;;;10.80;8.70;;;0.90;90.30;;;;;;2075449;28;20482;-69
2022/03/08 04:38:13;;;;;;;9.88;8.15;;;0.90;90.30;;;;;;2072350;28;20026;-69
2022/03/08 04:39:14;;;;;;;9.95;8.88;;;0.90;90.30;;;;;;2077845;28;20486;-68
2022/03/08 04:40:18;;;;;;;9.88;8.15;;;0.90;90.30;;;;;;2072054;28;20041;-69
2022/03/08 04:41:18;;;;;;;13.85;9.30;;;0.90;90.70;;;;;;2073625;28;20670;-69
2022/03/08 04:42:19;;;;;;;10.63;8.95;;;0.90;90.90;;;;;;2072505;28;20025;-69
2022/03/08 04:43:19;;;;;;;9.70;8.50;;;0.90;91.10;;;;;;2072192;28;20021;-69
2022/03/08 04:44:20;;;;;;;14.63;10.10;;;0.90;91.50;;;;;;2073891;28;20018;-69
2022/03/08 04:45:21;;;;;;;16.98;9.15;;;0.90;91.80;;;;;;2073202;28;20410;-69
2022/03/08 04:46:21;;;;;;;15.23;10.05;;;0.90;91.90;;;;;;2071914;28;20014;-69
2022/03/08 04:47:22;;;;;;;11.43;8.68;;;0.90;91.90;;;;;;2074113;28;20017;-68
2022/03/08 04:48:22;;;;;;;11.88;9.05;;;1.00;92.10;;;;;;2073277;28;20073;-69
2022/03/08 04:49:23;;;;;;;11.93;9.77;;;1.00;92.40;;;;;;2072657;28;20421;-69
2022/03/08 04:50:24;;;;;;;12.52;8.50;;;1.00;92.70;;;;;;2072001;28;20057;-69
2022/03/08 04:51:24;;;;;;;18.95;9.25;;;1.00;92.70;;;;;;2071787;28;20030;-69
2022/03/08 04:52:25;;;;;;;11.32;10.13;;;1.00;92.80;;;;;;2072888;28;20371;-69
2022/03/08 04:53:25;;;;;;;13.02;9.95;;;1.00;93.00;;;;;;2071457;28;20034;-69
2022/03/08 04:54:26;;;;;;;14.85;9.57;;;1.00;93.40;;;;;;2074634;28;20044;-69
2022/03/08 04:55:26;;;;;;;11.25;9.35;;;1.00;93.50;;;;;;2073563;28;20060;-69
2022/03/08 04:56:27;;;;;;;14.43;9.65;;;1.00;93.50;;;;;;2066855;28;21127;-69
2022/03/08 04:57:27;;;;;;;16.23;9.85;;;1.00;93.40;;;;;;2074769;28;20116;-69
2022/03/08 04:58:28;;;;;;;11.82;9.90;;;1.00;93.50;;;;;;2075016;28;20034;-70
2022/03/08 04:59:29;;;;;;;13.85;9.50;;;1.00;93.60;;;;;;2071823;28;20512;-69
2022/03/08 05:00:29;;;;;;;10.70;9.55;;;1.10;93.70;;;;;;2071740;28;20036;-69
2022/03/08 05:01:30;;;;;;;11.93;9.40;;;1.10;93.70;;;;;;2072575;28;20115;-69
2022/03/08 05:02:31;;;;;;;10.35;9.13;;;1.10;93.80;;;;;;2072741;28;20646;-68
2022/03/08 05:03:31;;;;;;;14.45;10.10;;;1.10;93.80;;;;;;2072238;28;20032;-68
2022/03/08 05:04:32;;;;;;;15.32;10.13;;;1.10;93.80;;;;;;2071310;28;20049;-69
2022/03/08 05:05:33;;;;;;;11.10;9.98;;;1.10;93.80;;;;;;2073735;28;20026;-69
2022/03/08 05:06:34;;;;;;;11.55;9.98;;;1.10;93.90;;;;;;2071759;28;20017;-69
2022/03/08 05:07:36;;;;;;;12.55;9.25;;;1.10;93.80;;;;;;2073218;28;20050;-69
2022/03/08 05:08:38;;;;;;;15.43;9.68;;;1.20;94.30;;;;;;2071590;28;20057;-69
2022/03/08 05:09:38;;;;;;;10.98;9.10;;;1.20;94.20;;;;;;2071336;28;20017;-69
2022/03/08 05:10:39;;;;;;;11.82;9.18;;;1.10;94.20;;;;;;2074757;28;20018;-69
2022/03/08 05:11:39;;;;;;;12.75;10.15;;;1.10;94.30;;;;;;2074061;28;20746;-69
2022/03/08 05:12:42;;;;;;;12.60;9.52;;;1.10;94.40;;;;;;2071292;28;20093;-69
2022/03/08 05:13:42;;;;;;;14.13;9.65;;;1.10;94.60;;;;;;2073490;28;20545;-69
2022/03/08 05:14:43;;;;;;;12.82;10.20;;;1.10;94.60;;;;;;2071795;28;20878;-69
2022/03/08 05:15:47;;;;;;;13.50;9.35;;;1.10;94.60;;;;;;2070883;28;20109;-69
2022/03/08 05:16:47;;;;;;;15.75;9.63;;;1.20;94.60;;;;;;2074084;28;20065;-69
2022/03/08 05:17:48;;;;;;;11.57;10.43;;;1.10;94.60;;;;;;2071399;28;20025;-69
2022/03/08 05:18:48;;;;;;;14.13;10.40;;;1.10;94.70;;;;;;2072500;28;20112;-69
2022/03/08 05:19:49;;;;;;;12.10;10.18;;;1.10;94.70;;;;;;2072462;28;20033;-69
2022/03/08 05:20:50;;;;;;;12.65;9.48;;;1.20;94.70;;;;;;2072706;28;20627;-69